Map

Track Data

SID SEASON NUMBER BASIN SUBBASIN NAME ISO_TIME NATURE LAT LON WMO_WIND WMO_PRES WMO_AGENCY TRACK_TYPE DIST2LAND LANDFALL IFLAG USA_AGENCY USA_ATCF_ID USA_LAT USA_LON USA_RECORD USA_STATUS USA_WIND USA_PRES USA_SSHS USA_R34_NE USA_R34_SE USA_R34_SW USA_R34_NW USA_R50_NE USA_R50_SE USA_R50_SW USA_R50_NW USA_R64_NE USA_R64_SE USA_R64_SW USA_R64_NW USA_POCI USA_ROCI USA_RMW USA_EYE TOKYO_LAT TOKYO_LON TOKYO_GRADE TOKYO_WIND TOKYO_PRES TOKYO_R50_DIR TOKYO_R50_LONG TOKYO_R50_SHORT TOKYO_R30_DIR TOKYO_R30_LONG TOKYO_R30_SHORT TOKYO_LAND CMA_LAT CMA_LON CMA_CAT CMA_WIND CMA_PRES HKO_LAT HKO_LON HKO_CAT HKO_WIND HKO_PRES NEWDELHI_LAT NEWDELHI_LON NEWDELHI_GRADE NEWDELHI_WIND NEWDELHI_PRES NEWDELHI_CI NEWDELHI_DP NEWDELHI_POCI REUNION_LAT REUNION_LON REUNION_TYPE REUNION_WIND REUNION_PRES REUNION_TNUM REUNION_CI REUNION_RMW REUNION_R34_NE REUNION_R34_SE REUNION_R34_SW REUNION_R34_NW REUNION_R50_NE REUNION_R50_SE REUNION_R50_SW REUNION_R50_NW REUNION_R64_NE REUNION_R64_SE REUNION_R64_SW REUNION_R64_NW BOM_LAT BOM_LON BOM_TYPE BOM_WIND BOM_PRES BOM_TNUM BOM_CI BOM_RMW BOM_R34_NE BOM_R34_SE BOM_R34_SW BOM_R34_NW BOM_R50_NE BOM_R50_SE BOM_R50_SW BOM_R50_NW BOM_R64_NE BOM_R64_SE BOM_R64_SW BOM_R64_NW BOM_ROCI BOM_POCI BOM_EYE BOM_POS_METHOD BOM_PRES_METHOD NADI_LAT NADI_LON NADI_CAT NADI_WIND NADI_PRES WELLINGTON_LAT WELLINGTON_LON WELLINGTON_WIND WELLINGTON_PRES DS824_LAT DS824_LON DS824_STAGE DS824_WIND DS824_PRES TD9636_LAT TD9636_LON TD9636_STAGE TD9636_WIND TD9636_PRES TD9635_LAT TD9635_LON TD9635_WIND TD9635_PRES TD9635_ROCI NEUMANN_LAT NEUMANN_LON NEUMANN_CLASS NEUMANN_WIND NEUMANN_PRES MLC_LAT MLC_LON MLC_CLASS MLC_WIND MLC_PRES USA_GUST BOM_GUST BOM_GUST_PER REUNION_GUST REUNION_GUST_PER USA_SEAHGT USA_SEARAD_NE USA_SEARAD_SE USA_SEARAD_SW USA_SEARAD_NW STORM_SPEED STORM_DIR
1910267N17127 1910 42 WP MM NOT_NAMED 1910-09-23 16:00:00 NR 16.7000 126.600 main 390 352 __________O___ -1 16.7000 126.600 7 17 271
1910267N17127 1910 42 WP MM NOT_NAMED 1910-09-23 18:00:00 NR 16.7123 126.019 main 352 277 __________P___ -1 16.7123 126.019 7 17 271
1910267N17127 1910 42 WP MM NOT_NAMED 1910-09-23 21:00:00 NR 16.7308 125.146 main 277 191 __________P___ -1 16.7308 125.146 7 17 271
1910267N17127 1910 42 WP MM NOT_NAMED 1910-09-24 00:00:00 NR 16.7538 124.271 main 191 96 __________P___ -1 16.7538 124.271 7 17 272
1910267N17127 1910 42 WP MM NOT_NAMED 1910-09-24 03:00:00 NR 16.7863 123.393 main 96 64 __________P___ -1 16.7863 123.393 7 17 272
1910267N17127 1910 42 WP MM NOT_NAMED 1910-09-24 04:00:00 NR 16.8000 123.100 main 64 10 __________O___ -1 16.8000 123.100 3 17 273
1910267N17127 1910 42 WP MM NOT_NAMED 1910-09-24 06:00:00 NR 16.8322 122.512 main 10 0 __________P___ -1 16.8322 122.512 3 17 274
1910267N17127 1910 42 WP MM NOT_NAMED 1910-09-24 09:00:00 NR 16.8875 121.629 main 0 0 __________P___ -1 16.8875 121.629 3 17 274
1910267N17127 1910 42 WP MM NOT_NAMED 1910-09-24 12:00:00 NR 16.9427 120.751 main 0 0 __________P___ -1 16.9427 120.751 3 17 273
1910267N17127 1910 42 WP MM NOT_NAMED 1910-09-24 15:00:00 NR 16.9885 119.885 main 57 67 __________P___ -1 16.9885 119.885 3 17 273
1910267N17127 1910 42 WP MM NOT_NAMED 1910-09-24 16:00:00 NR 17.0000 119.600 main 81 81 __________O___ -1 17.0000 119.600 4 16 272
1910267N17127 1910 42 WP MM NOT_NAMED 1910-09-24 18:00:00 NR 17.0159 119.033 main 115 115 __________P___ -1 17.0159 119.033 4 16 271
1910267N17127 1910 42 WP MM NOT_NAMED 1910-09-24 21:00:00 NR 17.0278 118.196 main 187 197 __________P___ -1 17.0278 118.196 4 16 270
1910267N17127 1910 42 WP MM NOT_NAMED 1910-09-25 00:00:00 NR 17.0255 117.373 main 267 277 __________P___ -1 17.0255 117.373 4 16 269
1910267N17127 1910 42 WP MM NOT_NAMED 1910-09-25 03:00:00 NR 17.0088 116.566 main 349 359 __________P___ -1 17.0088 116.566 4 15 269
1910267N17127 1910 42 WP MM NOT_NAMED 1910-09-25 04:00:00 NR 17.0000 116.300 main 379 379 __________O___ -1 17.0000 116.300 4 15 267
1910267N17127 1910 42 WP MM NOT_NAMED 1910-09-25 06:00:00 NR 16.9723 115.759 main 430 441 __________P___ -1 16.9723 115.759 4 15 266
1910267N17127 1910 42 WP MM NOT_NAMED 1910-09-25 09:00:00 NR 16.9186 114.959 main 511 445 __________P___ -1 16.9186 114.959 4 15 266
1910267N17127 1910 42 WP MM NOT_NAMED 1910-09-25 12:00:00 NR 16.8612 114.183 main 445 379 __________P___ -1 16.8612 114.183 4 15 266
1910267N17127 1910 42 WP MM NOT_NAMED 1910-09-25 15:00:00 NR 16.8122 113.439 main 379 363 __________P___ -1 16.8122 113.439 4 14 266
1910267N17127 1910 42 WP MM NOT_NAMED 1910-09-25 16:00:00 NR 16.8000 113.200 main 363 323 __________O___ -1 16.8000 113.200 4 13 268
1910267N17127 1910 42 WP MM NOT_NAMED 1910-09-25 18:00:00 NR 16.7834 112.736 main 323 278 __________P___ -1 16.7834 112.736 4 13 269
1910267N17127 1910 42 WP MM NOT_NAMED 1910-09-25 21:00:00 NR 16.7754 112.071 main 278 232 __________P___ -1 16.7754 112.071 4 13 270
1910267N17127 1910 42 WP MM NOT_NAMED 1910-09-26 00:00:00 NR 16.7815 111.432 main 232 195 __________P___ -1 16.7815 111.432 4 12 271
1910267N17127 1910 42 WP MM NOT_NAMED 1910-09-26 03:00:00 NR 16.7950 110.807 main 195 183 __________P___ -1 16.7950 110.807 4 12 271
1910267N17127 1910 42 WP MM NOT_NAMED 1910-09-26 04:00:00 NR 16.8000 110.600 main 183 __________O___ -1 16.8000 110.600 4 12 271

Digital Typhoon Data and Search

About IBTrACS Database

This database is a web-friendly format of International Best Track Archive for Climate Stewardship (IBTrACS), a global best track data archive curated by NOAA dating back to 1842.

Updated: 2021-12-08